sensor_id;sensor_type;location;lat;lon;timestamp;P1;durP1;ratioP1;P2;durP2;ratioP2
70406;SDS011;57821;52.202;0.154;2023-07-13T00:02:01;11.05;;;2.38;;
70406;SDS011;57821;52.202;0.154;2023-07-13T00:04:28;11.85;;;2.60;;
70406;SDS011;57821;52.202;0.154;2023-07-13T00:06:58;6.33;;;2.40;;
70406;SDS011;57821;52.202;0.154;2023-07-13T00:09:25;9.85;;;2.55;;
70406;SDS011;57821;52.202;0.154;2023-07-13T00:11:53;13.93;;;2.53;;
70406;SDS011;57821;52.202;0.154;2023-07-13T00:14:22;8.88;;;2.20;;
70406;SDS011;57821;52.202;0.154;2023-07-13T00:16:49;10.70;;;2.78;;
70406;SDS011;57821;52.202;0.154;2023-07-13T00:19:16;8.85;;;2.15;;
70406;SDS011;57821;52.202;0.154;2023-07-13T00:21:43;10.60;;;2.50;;
70406;SDS011;57821;52.202;0.154;2023-07-13T00:24:11;8.73;;;2.33;;
70406;SDS011;57821;52.202;0.154;2023-07-13T00:26:40;9.30;;;2.40;;
70406;SDS011;57821;52.202;0.154;2023-07-13T00:29:07;11.48;;;2.35;;
70406;SDS011;57821;52.202;0.154;2023-07-13T00:31:34;9.00;;;2.38;;
70406;SDS011;57821;52.202;0.154;2023-07-13T00:34:01;17.50;;;3.03;;
70406;SDS011;57821;52.202;0.154;2023-07-13T00:36:29;11.93;;;2.25;;
70406;SDS011;57821;52.202;0.154;2023-07-13T00:38:56;9.93;;;2.38;;
70406;SDS011;57821;52.202;0.154;2023-07-13T00:41:23;7.20;;;2.30;;
70406;SDS011;57821;52.202;0.154;2023-07-13T00:43:50;10.50;;;2.60;;
70406;SDS011;57821;52.202;0.154;2023-07-13T00:46:25;10.07;;;2.28;;
70406;SDS011;57821;52.202;0.154;2023-07-13T00:48:52;11.60;;;2.53;;
70406;SDS011;57821;52.202;0.154;2023-07-13T00:51:22;12.20;;;2.75;;
70406;SDS011;57821;52.202;0.154;2023-07-13T00:53:54;9.77;;;2.67;;
70406;SDS011;57821;52.202;0.154;2023-07-13T00:56:25;8.45;;;2.58;;
70406;SDS011;57821;52.202;0.154;2023-07-13T00:58:53;10.85;;;2.38;;
70406;SDS011;57821;52.202;0.154;2023-07-13T01:01:19;19.38;;;2.60;;
70406;SDS011;57821;52.202;0.154;2023-07-13T01:03:46;9.93;;;3.42;;
70406;SDS011;57821;52.202;0.154;2023-07-13T01:06:13;8.85;;;2.10;;
70406;SDS011;57821;52.202;0.154;2023-07-13T01:08:40;10.43;;;2.58;;
70406;SDS011;57821;52.202;0.154;2023-07-13T01:11:07;10.40;;;2.30;;
70406;SDS011;57821;52.202;0.154;2023-07-13T01:13:34;10.15;;;3.35;;
70406;SDS011;57821;52.202;0.154;2023-07-13T01:16:02;9.63;;;3.05;;
70406;SDS011;57821;52.202;0.154;2023-07-13T01:18:38;9.43;;;2.45;;
70406;SDS011;57821;52.202;0.154;2023-07-13T01:21:05;9.50;;;2.47;;
70406;SDS011;57821;52.202;0.154;2023-07-13T01:23:31;10.25;;;2.65;;
70406;SDS011;57821;52.202;0.154;2023-07-13T01:25:59;7.32;;;2.42;;
70406;SDS011;57821;52.202;0.154;2023-07-13T01:28:26;8.65;;;2.55;;
70406;SDS011;57821;52.202;0.154;2023-07-13T01:30:55;8.80;;;2.72;;
70406;SDS011;57821;52.202;0.154;2023-07-13T01:33:22;14.35;;;3.13;;
70406;SDS011;57821;52.202;0.154;2023-07-13T01:35:50;9.15;;;2.90;;
70406;SDS011;57821;52.202;0.154;2023-07-13T01:38:19;10.63;;;2.63;;
70406;SDS011;57821;52.202;0.154;2023-07-13T01:43:14;12.43;;;2.47;;
70406;SDS011;57821;52.202;0.154;2023-07-13T01:45:41;10.15;;;2.85;;
70406;SDS011;57821;52.202;0.154;2023-07-13T01:48:11;14.20;;;3.35;;
70406;SDS011;57821;52.202;0.154;2023-07-13T01:50:38;13.02;;;3.35;;
70406;SDS011;57821;52.202;0.154;2023-07-13T01:53:07;9.52;;;3.55;;
70406;SDS011;57821;52.202;0.154;2023-07-13T01:55:34;11.13;;;2.88;;
70406;SDS011;57821;52.202;0.154;2023-07-13T01:58:02;12.80;;;4.20;;
70406;SDS011;57821;52.202;0.154;2023-07-13T02:00:29;11.25;;;3.28;;
70406;SDS011;57821;52.202;0.154;2023-07-13T02:02:56;8.68;;;3.00;;
70406;SDS011;57821;52.202;0.154;2023-07-13T02:05:23;12.20;;;3.92;;
70406;SDS011;57821;52.202;0.154;2023-07-13T02:07:50;13.40;;;3.30;;
70406;SDS011;57821;52.202;0.154;2023-07-13T02:10:17;10.40;;;2.92;;
70406;SDS011;57821;52.202;0.154;2023-07-13T02:12:43;14.45;;;3.15;;
70406;SDS011;57821;52.202;0.154;2023-07-13T02:15:10;7.05;;;2.60;;
70406;SDS011;57821;52.202;0.154;2023-07-13T02:17:37;11.63;;;3.22;;
70406;SDS011;57821;52.202;0.154;2023-07-13T02:20:04;9.20;;;2.92;;
70406;SDS011;57821;52.202;0.154;2023-07-13T02:22:32;11.32;;;3.40;;
70406;SDS011;57821;52.202;0.154;2023-07-13T02:24:58;8.55;;;3.30;;
70406;SDS011;57821;52.202;0.154;2023-07-13T02:27:25;10.57;;;3.03;;
70406;SDS011;57821;52.202;0.154;2023-07-13T02:29:52;10.25;;;3.10;;
70406;SDS011;57821;52.202;0.154;2023-07-13T02:32:20;11.20;;;2.83;;
70406;SDS011;57821;52.202;0.154;2023-07-13T02:34:47;10.45;;;3.05;;
70406;SDS011;57821;52.202;0.154;2023-07-13T02:37:14;9.30;;;2.80;;
70406;SDS011;57821;52.202;0.154;2023-07-13T02:39:41;12.07;;;3.00;;
70406;SDS011;57821;52.202;0.154;2023-07-13T02:42:07;10.35;;;2.65;;
70406;SDS011;57821;52.202;0.154;2023-07-13T02:44:34;13.85;;;3.03;;
70406;SDS011;57821;52.202;0.154;2023-07-13T02:47:01;9.85;;;3.30;;
70406;SDS011;57821;52.202;0.154;2023-07-13T02:49:28;8.20;;;2.92;;
70406;SDS011;57821;52.202;0.154;2023-07-13T02:51:55;11.15;;;3.00;;
70406;SDS011;57821;52.202;0.154;2023-07-13T02:54:22;10.48;;;3.45;;
70406;SDS011;57821;52.202;0.154;2023-07-13T02:56:48;13.32;;;3.60;;
70406;SDS011;57821;52.202;0.154;2023-07-13T02:59:15;9.27;;;3.25;;
70406;SDS011;57821;52.202;0.154;2023-07-13T03:01:42;8.68;;;3.20;;
70406;SDS011;57821;52.202;0.154;2023-07-13T03:04:10;11.82;;;3.17;;
70406;SDS011;57821;52.202;0.154;2023-07-13T03:06:36;9.75;;;3.58;;
70406;SDS011;57821;52.202;0.154;2023-07-13T03:09:04;12.07;;;3.45;;
70406;SDS011;57821;52.202;0.154;2023-07-13T03:11:33;9.88;;;3.30;;
70406;SDS011;57821;52.202;0.154;2023-07-13T03:14:20;10.35;;;3.17;;
70406;SDS011;57821;52.202;0.154;2023-07-13T03:16:48;8.70;;;3.10;;
70406;SDS011;57821;52.202;0.154;2023-07-13T03:19:16;11.13;;;3.65;;
70406;SDS011;57821;52.202;0.154;2023-07-13T03:24:14;10.80;;;3.08;;
70406;SDS011;57821;52.202;0.154;2023-07-13T03:26:41;15.70;;;3.47;;
70406;SDS011;57821;52.202;0.154;2023-07-13T03:29:08;10.70;;;3.45;;
70406;SDS011;57821;52.202;0.154;2023-07-13T03:31:35;10.10;;;3.33;;
70406;SDS011;57821;52.202;0.154;2023-07-13T03:34:03;11.02;;;3.47;;
70406;SDS011;57821;52.202;0.154;2023-07-13T03:36:30;12.35;;;4.07;;
70406;SDS011;57821;52.202;0.154;2023-07-13T03:39:02;15.75;;;3.33;;
70406;SDS011;57821;52.202;0.154;2023-07-13T03:41:36;16.08;;;3.75;;
70406;SDS011;57821;52.202;0.154;2023-07-13T03:44:03;14.23;;;3.53;;
70406;SDS011;57821;52.202;0.154;2023-07-13T03:46:30;15.80;;;3.33;;
70406;SDS011;57821;52.202;0.154;2023-07-13T03:48:57;10.15;;;3.65;;
70406;SDS011;57821;52.202;0.154;2023-07-13T03:51:24;10.57;;;3.15;;
70406;SDS011;57821;52.202;0.154;2023-07-13T03:53:50;14.68;;;3.92;;
70406;SDS011;57821;52.202;0.154;2023-07-13T03:56:19;16.60;;;3.47;;
70406;SDS011;57821;52.202;0.154;2023-07-13T03:58:47;12.05;;;3.40;;
70406;SDS011;57821;52.202;0.154;2023-07-13T04:01:22;12.85;;;3.33;;
70406;SDS011;57821;52.202;0.154;2023-07-13T04:03:50;8.85;;;3.70;;
70406;SDS011;57821;52.202;0.154;2023-07-13T04:06:25;9.63;;;3.27;;
70406;SDS011;57821;52.202;0.154;2023-07-13T04:08:54;9.55;;;3.53;;
70406;SDS011;57821;52.202;0.154;2023-07-13T04:11:24;10.35;;;3.05;;
70406;SDS011;57821;52.202;0.154;2023-07-13T04:13:53;9.10;;;3.40;;
70406;SDS011;57821;52.202;0.154;2023-07-13T04:16:19;12.10;;;3.65;;
70406;SDS011;57821;52.202;0.154;2023-07-13T04:18:47;10.23;;;3.75;;
70406;SDS011;57821;52.202;0.154;2023-07-13T04:21:14;16.30;;;4.22;;
70406;SDS011;57821;52.202;0.154;2023-07-13T04:23:42;11.70;;;3.55;;
70406;SDS011;57821;52.202;0.154;2023-07-13T04:26:09;14.07;;;3.67;;
70406;SDS011;57821;52.202;0.154;2023-07-13T04:28:36;14.27;;;3.75;;
70406;SDS011;57821;52.202;0.154;2023-07-13T04:31:03;20.20;;;4.10;;
70406;SDS011;57821;52.202;0.154;2023-07-13T04:33:30;10.15;;;3.20;;
70406;SDS011;57821;52.202;0.154;2023-07-13T04:35:56;9.18;;;3.30;;
70406;SDS011;57821;52.202;0.154;2023-07-13T04:38:24;11.88;;;3.25;;
70406;SDS011;57821;52.202;0.154;2023-07-13T04:40:56;23.65;;;4.57;;
70406;SDS011;57821;52.202;0.154;2023-07-13T04:43:24;10.27;;;3.35;;
70406;SDS011;57821;52.202;0.154;2023-07-13T04:45:51;15.70;;;3.45;;
70406;SDS011;57821;52.202;0.154;2023-07-13T04:48:18;12.65;;;3.25;;
70406;SDS011;57821;52.202;0.154;2023-07-13T04:50:46;13.55;;;3.58;;
70406;SDS011;57821;52.202;0.154;2023-07-13T04:53:13;13.75;;;3.47;;
70406;SDS011;57821;52.202;0.154;2023-07-13T04:55:39;13.60;;;3.42;;
70406;SDS011;57821;52.202;0.154;2023-07-13T04:58:06;14.20;;;3.42;;
70406;SDS011;57821;52.202;0.154;2023-07-13T05:00:33;15.25;;;4.35;;
70406;SDS011;57821;52.202;0.154;2023-07-13T05:02:59;11.20;;;2.83;;
70406;SDS011;57821;52.202;0.154;2023-07-13T05:05:26;11.68;;;3.35;;
70406;SDS011;57821;52.202;0.154;2023-07-13T05:07:53;17.83;;;3.35;;
70406;SDS011;57821;52.202;0.154;2023-07-13T05:10:20;13.15;;;4.20;;
70406;SDS011;57821;52.202;0.154;2023-07-13T05:12:47;12.65;;;3.50;;
70406;SDS011;57821;52.202;0.154;2023-07-13T05:15:13;14.70;;;3.45;;
70406;SDS011;57821;52.202;0.154;2023-07-13T05:17:41;14.68;;;3.63;;
70406;SDS011;57821;52.202;0.154;2023-07-13T05:20:08;13.80;;;3.13;;
70406;SDS011;57821;52.202;0.154;2023-07-13T05:22:35;11.50;;;3.92;;
70406;SDS011;57821;52.202;0.154;2023-07-13T05:25:04;13.15;;;3.00;;
70406;SDS011;57821;52.202;0.154;2023-07-13T05:27:32;9.75;;;3.22;;
70406;SDS011;57821;52.202;0.154;2023-07-13T05:29:59;13.05;;;2.88;;
70406;SDS011;57821;52.202;0.154;2023-07-13T05:32:25;24.13;;;4.13;;
70406;SDS011;57821;52.202;0.154;2023-07-13T05:34:52;9.95;;;2.58;;
70406;SDS011;57821;52.202;0.154;2023-07-13T05:37:19;12.95;;;2.80;;
70406;SDS011;57821;52.202;0.154;2023-07-13T05:39:45;11.68;;;3.25;;
70406;SDS011;57821;52.202;0.154;2023-07-13T05:42:20;13.02;;;3.22;;
70406;SDS011;57821;52.202;0.154;2023-07-13T05:44:46;11.02;;;3.00;;
70406;SDS011;57821;52.202;0.154;2023-07-13T05:47:13;14.98;;;3.35;;
70406;SDS011;57821;52.202;0.154;2023-07-13T05:49:40;9.93;;;2.60;;
70406;SDS011;57821;52.202;0.154;2023-07-13T05:52:07;14.77;;;3.47;;
70406;SDS011;57821;52.202;0.154;2023-07-13T05:54:34;10.70;;;3.15;;
70406;SDS011;57821;52.202;0.154;2023-07-13T05:57:00;10.95;;;2.75;;
70406;SDS011;57821;52.202;0.154;2023-07-13T05:59:27;10.10;;;2.42;;
70406;SDS011;57821;52.202;0.154;2023-07-13T06:01:54;10.68;;;2.92;;
70406;SDS011;57821;52.202;0.154;2023-07-13T06:04:20;12.27;;;3.03;;
70406;SDS011;57821;52.202;0.154;2023-07-13T06:06:47;11.43;;;2.83;;
70406;SDS011;57821;52.202;0.154;2023-07-13T06:09:13;15.25;;;3.58;;
70406;SDS011;57821;52.202;0.154;2023-07-13T06:11:40;10.05;;;2.83;;
70406;SDS011;57821;52.202;0.154;2023-07-13T06:14:07;13.13;;;2.22;;
70406;SDS011;57821;52.202;0.154;2023-07-13T06:16:33;9.00;;;2.67;;
70406;SDS011;57821;52.202;0.154;2023-07-13T06:19:00;18.25;;;3.55;;
70406;SDS011;57821;52.202;0.154;2023-07-13T06:21:27;11.52;;;2.65;;
70406;SDS011;57821;52.202;0.154;2023-07-13T06:23:53;9.65;;;2.85;;
70406;SDS011;57821;52.202;0.154;2023-07-13T06:26:20;8.30;;;2.42;;
70406;SDS011;57821;52.202;0.154;2023-07-13T06:28:47;11.85;;;3.00;;
70406;SDS011;57821;52.202;0.154;2023-07-13T06:31:14;12.98;;;2.88;;
70406;SDS011;57821;52.202;0.154;2023-07-13T06:33:42;10.43;;;3.55;;
70406;SDS011;57821;52.202;0.154;2023-07-13T06:36:09;10.07;;;2.80;;
70406;SDS011;57821;52.202;0.154;2023-07-13T06:38:36;8.82;;;2.60;;
70406;SDS011;57821;52.202;0.154;2023-07-13T06:41:06;13.88;;;2.83;;
70406;SDS011;57821;52.202;0.154;2023-07-13T06:43:33;14.10;;;2.60;;
70406;SDS011;57821;52.202;0.154;2023-07-13T06:46:00;10.30;;;3.00;;
70406;SDS011;57821;52.202;0.154;2023-07-13T06:48:27;9.98;;;3.00;;
70406;SDS011;57821;52.202;0.154;2023-07-13T06:50:54;7.72;;;2.30;;
70406;SDS011;57821;52.202;0.154;2023-07-13T06:53:20;7.25;;;2.30;;
70406;SDS011;57821;52.202;0.154;2023-07-13T06:55:47;7.53;;;2.03;;
70406;SDS011;57821;52.202;0.154;2023-07-13T06:58:15;9.93;;;2.25;;
70406;SDS011;57821;52.202;0.154;2023-07-13T07:00:43;10.93;;;2.17;;
70406;SDS011;57821;52.202;0.154;2023-07-13T07:03:09;10.05;;;2.53;;
70406;SDS011;57821;52.202;0.154;2023-07-13T07:05:36;11.93;;;2.55;;
70406;SDS011;57821;52.202;0.154;2023-07-13T07:08:03;10.70;;;2.38;;
70406;SDS011;57821;52.202;0.154;2023-07-13T07:10:30;12.82;;;2.53;;
70406;SDS011;57821;52.202;0.154;2023-07-13T07:12:57;11.32;;;2.05;;
70406;SDS011;57821;52.202;0.154;2023-07-13T07:15:24;11.43;;;2.53;;
70406;SDS011;57821;52.202;0.154;2023-07-13T07:17:51;11.75;;;2.50;;
70406;SDS011;57821;52.202;0.154;2023-07-13T07:20:18;8.15;;;2.20;;
70406;SDS011;57821;52.202;0.154;2023-07-13T07:22:44;9.52;;;2.53;;
70406;SDS011;57821;52.202;0.154;2023-07-13T07:25:11;10.73;;;2.90;;
70406;SDS011;57821;52.202;0.154;2023-07-13T07:27:39;10.57;;;2.50;;
70406;SDS011;57821;52.202;0.154;2023-07-13T07:30:08;11.23;;;2.65;;
70406;SDS011;57821;52.202;0.154;2023-07-13T07:32:38;9.88;;;2.70;;
70406;SDS011;57821;52.202;0.154;2023-07-13T07:35:07;7.70;;;2.10;;
70406;SDS011;57821;52.202;0.154;2023-07-13T07:37:34;9.85;;;2.20;;
70406;SDS011;57821;52.202;0.154;2023-07-13T07:40:05;8.90;;;2.15;;
70406;SDS011;57821;52.202;0.154;2023-07-13T07:42:35;10.57;;;2.27;;
70406;SDS011;57821;52.202;0.154;2023-07-13T07:45:02;7.97;;;2.08;;
70406;SDS011;57821;52.202;0.154;2023-07-13T07:47:28;9.27;;;2.47;;
70406;SDS011;57821;52.202;0.154;2023-07-13T07:49:55;7.63;;;2.33;;
70406;SDS011;57821;52.202;0.154;2023-07-13T07:52:22;10.32;;;1.90;;
70406;SDS011;57821;52.202;0.154;2023-07-13T07:54:48;13.85;;;3.65;;
70406;SDS011;57821;52.202;0.154;2023-07-13T07:57:18;13.38;;;1.90;;
70406;SDS011;57821;52.202;0.154;2023-07-13T08:00:04;7.70;;;1.88;;
70406;SDS011;57821;52.202;0.154;2023-07-13T08:02:40;7.55;;;2.60;;
70406;SDS011;57821;52.202;0.154;2023-07-13T08:05:27;6.63;;;2.15;;
70406;SDS011;57821;52.202;0.154;2023-07-13T08:07:57;9.48;;;1.95;;
70406;SDS011;57821;52.202;0.154;2023-07-13T08:10:24;6.43;;;1.98;;
70406;SDS011;57821;52.202;0.154;2023-07-13T08:12:50;8.45;;;2.13;;
70406;SDS011;57821;52.202;0.154;2023-07-13T08:15:20;6.78;;;2.08;;
70406;SDS011;57821;52.202;0.154;2023-07-13T08:17:47;6.32;;;1.85;;
70406;SDS011;57821;52.202;0.154;2023-07-13T08:20:14;8.65;;;2.13;;
70406;SDS011;57821;52.202;0.154;2023-07-13T08:22:41;8.05;;;2.00;;
70406;SDS011;57821;52.202;0.154;2023-07-13T08:25:08;6.75;;;1.80;;
70406;SDS011;57821;52.202;0.154;2023-07-13T08:27:35;6.60;;;1.88;;
70406;SDS011;57821;52.202;0.154;2023-07-13T08:30:01;6.05;;;1.73;;
70406;SDS011;57821;52.202;0.154;2023-07-13T08:32:28;5.35;;;1.70;;
70406;SDS011;57821;52.202;0.154;2023-07-13T08:34:55;5.30;;;1.65;;
70406;SDS011;57821;52.202;0.154;2023-07-13T08:37:22;6.40;;;1.80;;
70406;SDS011;57821;52.202;0.154;2023-07-13T08:39:48;7.18;;;1.60;;
70406;SDS011;57821;52.202;0.154;2023-07-13T08:42:20;7.50;;;2.00;;
70406;SDS011;57821;52.202;0.154;2023-07-13T08:47:33;8.82;;;1.88;;
70406;SDS011;57821;52.202;0.154;2023-07-13T08:50:04;4.97;;;1.52;;
70406;SDS011;57821;52.202;0.154;2023-07-13T08:52:35;6.20;;;1.90;;
70406;SDS011;57821;52.202;0.154;2023-07-13T08:55:08;6.43;;;1.90;;
70406;SDS011;57821;52.202;0.154;2023-07-13T08:57:41;6.18;;;1.75;;
70406;SDS011;57821;52.202;0.154;2023-07-13T09:00:10;5.88;;;1.52;;
70406;SDS011;57821;52.202;0.154;2023-07-13T09:02:58;4.93;;;1.50;;
70406;SDS011;57821;52.202;0.154;2023-07-13T09:05:29;9.52;;;2.25;;
70406;SDS011;57821;52.202;0.154;2023-07-13T09:11:04;7.55;;;1.50;;
70406;SDS011;57821;52.202;0.154;2023-07-13T09:16:37;10.00;;;2.10;;
70406;SDS011;57821;52.202;0.154;2023-07-13T09:19:05;6.47;;;1.92;;
70406;SDS011;57821;52.202;0.154;2023-07-13T09:21:37;6.05;;;1.40;;
70406;SDS011;57821;52.202;0.154;2023-07-13T09:29:27;9.23;;;1.75;;
70406;SDS011;57821;52.202;0.154;2023-07-13T09:31:57;5.93;;;1.30;;
70406;SDS011;57821;52.202;0.154;2023-07-13T09:34:27;5.13;;;1.50;;
70406;SDS011;57821;52.202;0.154;2023-07-13T09:36:54;6.65;;;1.67;;
70406;SDS011;57821;52.202;0.154;2023-07-13T09:39:55;8.48;;;1.75;;
70406;SDS011;57821;52.202;0.154;2023-07-13T09:42:16;5.93;;;1.63;;
70406;SDS011;57821;52.202;0.154;2023-07-13T09:47:21;6.97;;;1.38;;
70406;SDS011;57821;52.202;0.154;2023-07-13T09:49:49;5.63;;;1.58;;
70406;SDS011;57821;52.202;0.154;2023-07-13T09:52:21;5.75;;;1.70;;
70406;SDS011;57821;52.202;0.154;2023-07-13T09:54:49;7.07;;;1.58;;
70406;SDS011;57821;52.202;0.154;2023-07-13T09:57:19;5.13;;;1.63;;
70406;SDS011;57821;52.202;0.154;2023-07-13T09:59:56;6.38;;;1.60;;
70406;SDS011;57821;52.202;0.154;2023-07-13T10:02:24;5.90;;;1.60;;
70406;SDS011;57821;52.202;0.154;2023-07-13T10:05:25;5.03;;;1.75;;
70406;SDS011;57821;52.202;0.154;2023-07-13T10:07:44;5.38;;;1.60;;
70406;SDS011;57821;52.202;0.154;2023-07-13T10:10:15;7.90;;;1.65;;
70406;SDS011;57821;52.202;0.154;2023-07-13T10:12:44;7.20;;;1.20;;
70406;SDS011;57821;52.202;0.154;2023-07-13T10:15:18;8.07;;;1.63;;
70406;SDS011;57821;52.202;0.154;2023-07-13T10:17:54;6.15;;;1.67;;
70406;SDS011;57821;52.202;0.154;2023-07-13T10:20:22;8.02;;;1.58;;
70406;SDS011;57821;52.202;0.154;2023-07-13T10:25:32;7.63;;;1.55;;
70406;SDS011;57821;52.202;0.154;2023-07-13T10:28:50;6.72;;;1.85;;
70406;SDS011;57821;52.202;0.154;2023-07-13T10:30:59;5.07;;;1.38;;
70406;SDS011;57821;52.202;0.154;2023-07-13T10:33:27;9.07;;;2.35;;
70406;SDS011;57821;52.202;0.154;2023-07-13T10:35:57;4.95;;;1.50;;
70406;SDS011;57821;52.202;0.154;2023-07-13T10:38:35;6.25;;;1.63;;
70406;SDS011;57821;52.202;0.154;2023-07-13T10:41:05;5.80;;;1.60;;
70406;SDS011;57821;52.202;0.154;2023-07-13T10:46:13;7.03;;;1.35;;
70406;SDS011;57821;52.202;0.154;2023-07-13T10:48:42;6.18;;;1.50;;
70406;SDS011;57821;52.202;0.154;2023-07-13T10:51:15;5.00;;;1.10;;
70406;SDS011;57821;52.202;0.154;2023-07-13T10:53:44;4.65;;;1.70;;
70406;SDS011;57821;52.202;0.154;2023-07-13T10:58:38;6.63;;;1.50;;
70406;SDS011;57821;52.202;0.154;2023-07-13T11:01:07;6.15;;;1.42;;
70406;SDS011;57821;52.202;0.154;2023-07-13T11:03:47;5.97;;;1.80;;
70406;SDS011;57821;52.202;0.154;2023-07-13T11:06:33;6.65;;;2.10;;
70406;SDS011;57821;52.202;0.154;2023-07-13T11:12:06;5.70;;;1.33;;
70406;SDS011;57821;52.202;0.154;2023-07-13T11:14:35;7.72;;;1.27;;
70406;SDS011;57821;52.202;0.154;2023-07-13T11:19:51;4.10;;;1.13;;
70406;SDS011;57821;52.202;0.154;2023-07-13T11:22:21;5.53;;;1.58;;
70406;SDS011;57821;52.202;0.154;2023-07-13T11:32:44;5.20;;;1.75;;
70406;SDS011;57821;52.202;0.154;2023-07-13T11:35:14;8.27;;;1.60;;
70406;SDS011;57821;52.202;0.154;2023-07-13T11:37:48;6.25;;;1.52;;
70406;SDS011;57821;52.202;0.154;2023-07-13T11:40:15;4.43;;;1.20;;
70406;SDS011;57821;52.202;0.154;2023-07-13T11:42:42;7.00;;;1.85;;
70406;SDS011;57821;52.202;0.154;2023-07-13T11:45:18;5.82;;;1.45;;
70406;SDS011;57821;52.202;0.154;2023-07-13T11:47:52;8.82;;;1.83;;
70406;SDS011;57821;52.202;0.154;2023-07-13T11:50:19;6.13;;;1.90;;
70406;SDS011;57821;52.202;0.154;2023-07-13T11:52:48;9.38;;;1.92;;
70406;SDS011;57821;52.202;0.154;2023-07-13T11:55:17;6.32;;;1.83;;
70406;SDS011;57821;52.202;0.154;2023-07-13T11:57:47;6.90;;;1.90;;
70406;SDS011;57821;52.202;0.154;2023-07-13T12:00:22;7.53;;;2.00;;
70406;SDS011;57821;52.202;0.154;2023-07-13T12:02:52;5.63;;;1.88;;
70406;SDS011;57821;52.202;0.154;2023-07-13T12:05:21;9.38;;;2.00;;
70406;SDS011;57821;52.202;0.154;2023-07-13T12:07:49;7.07;;;2.13;;
70406;SDS011;57821;52.202;0.154;2023-07-13T12:10:26;13.35;;;3.33;;
70406;SDS011;57821;52.202;0.154;2023-07-13T12:12:58;6.55;;;2.40;;
70406;SDS011;57821;52.202;0.154;2023-07-13T12:15:41;5.35;;;2.17;;
70406;SDS011;57821;52.202;0.154;2023-07-13T12:18:14;7.65;;;2.35;;
70406;SDS011;57821;52.202;0.154;2023-07-13T12:20:44;6.03;;;2.10;;
70406;SDS011;57821;52.202;0.154;2023-07-13T12:26:01;4.90;;;2.22;;
70406;SDS011;57821;52.202;0.154;2023-07-13T12:33:30;5.80;;;2.10;;
70406;SDS011;57821;52.202;0.154;2023-07-13T12:35:57;6.72;;;1.90;;
70406;SDS011;57821;52.202;0.154;2023-07-13T12:38:28;6.95;;;2.17;;
70406;SDS011;57821;52.202;0.154;2023-07-13T12:40:56;7.13;;;2.40;;
70406;SDS011;57821;52.202;0.154;2023-07-13T12:43:23;4.25;;;1.92;;
70406;SDS011;57821;52.202;0.154;2023-07-13T12:48:26;5.15;;;2.03;;
70406;SDS011;57821;52.202;0.154;2023-07-13T12:51:12;5.00;;;2.08;;
70406;SDS011;57821;52.202;0.154;2023-07-13T12:55:24;4.88;;;2.20;;
70406;SDS011;57821;52.202;0.154;2023-07-13T12:57:55;6.43;;;2.20;;
70406;SDS011;57821;52.202;0.154;2023-07-13T13:00:31;7.05;;;2.60;;
70406;SDS011;57821;52.202;0.154;2023-07-13T13:02:58;6.25;;;2.22;;
70406;SDS011;57821;52.202;0.154;2023-07-13T13:05:56;5.50;;;1.88;;
70406;SDS011;57821;52.202;0.154;2023-07-13T13:08:27;4.25;;;1.40;;
70406;SDS011;57821;52.202;0.154;2023-07-13T13:10:53;5.18;;;1.98;;
70406;SDS011;57821;52.202;0.154;2023-07-13T13:13:20;9.68;;;1.88;;
70406;SDS011;57821;52.202;0.154;2023-07-13T13:15:47;7.93;;;1.88;;
70406;SDS011;57821;52.202;0.154;2023-07-13T13:18:23;5.22;;;1.63;;
70406;SDS011;57821;52.202;0.154;2023-07-13T13:20:50;6.00;;;1.92;;
70406;SDS011;57821;52.202;0.154;2023-07-13T13:23:19;5.35;;;2.03;;
70406;SDS011;57821;52.202;0.154;2023-07-13T13:25:48;9.00;;;3.05;;
70406;SDS011;57821;52.202;0.154;2023-07-13T13:28:17;8.07;;;2.85;;
70406;SDS011;57821;52.202;0.154;2023-07-13T13:30:47;5.10;;;1.77;;
70406;SDS011;57821;52.202;0.154;2023-07-13T13:33:17;5.80;;;1.80;;
70406;SDS011;57821;52.202;0.154;2023-07-13T13:35:45;6.07;;;1.83;;
70406;SDS011;57821;52.202;0.154;2023-07-13T13:38:13;5.03;;;1.83;;
70406;SDS011;57821;52.202;0.154;2023-07-13T13:40:41;7.03;;;2.17;;
70406;SDS011;57821;52.202;0.154;2023-07-13T13:43:20;4.90;;;1.63;;
70406;SDS011;57821;52.202;0.154;2023-07-13T13:45:55;5.68;;;1.77;;
70406;SDS011;57821;52.202;0.154;2023-07-13T13:48:32;3.70;;;1.30;;
70406;SDS011;57821;52.202;0.154;2023-07-13T13:51:00;5.53;;;1.38;;
70406;SDS011;57821;52.202;0.154;2023-07-13T13:53:30;5.78;;;1.60;;
70406;SDS011;57821;52.202;0.154;2023-07-13T13:55:57;5.65;;;1.65;;
70406;SDS011;57821;52.202;0.154;2023-07-13T13:58:23;4.32;;;1.55;;
70406;SDS011;57821;52.202;0.154;2023-07-13T14:00:50;4.45;;;1.60;;
70406;SDS011;57821;52.202;0.154;2023-07-13T14:03:20;5.35;;;1.52;;
70406;SDS011;57821;52.202;0.154;2023-07-13T14:05:48;4.70;;;1.45;;
70406;SDS011;57821;52.202;0.154;2023-07-13T14:08:15;6.38;;;1.73;;
70406;SDS011;57821;52.202;0.154;2023-07-13T14:10:44;5.35;;;1.67;;
70406;SDS011;57821;52.202;0.154;2023-07-13T14:13:21;5.70;;;1.80;;
70406;SDS011;57821;52.202;0.154;2023-07-13T14:15:52;4.70;;;1.80;;
70406;SDS011;57821;52.202;0.154;2023-07-13T14:18:19;4.35;;;1.80;;
70406;SDS011;57821;52.202;0.154;2023-07-13T14:20:47;4.07;;;1.50;;
70406;SDS011;57821;52.202;0.154;2023-07-13T14:23:14;6.18;;;1.90;;
70406;SDS011;57821;52.202;0.154;2023-07-13T14:25:42;4.55;;;1.77;;
70406;SDS011;57821;52.202;0.154;2023-07-13T14:28:18;4.32;;;1.60;;
70406;SDS011;57821;52.202;0.154;2023-07-13T14:30:47;5.70;;;1.58;;
70406;SDS011;57821;52.202;0.154;2023-07-13T14:33:15;4.90;;;1.40;;
70406;SDS011;57821;52.202;0.154;2023-07-13T14:35:41;5.60;;;1.70;;
70406;SDS011;57821;52.202;0.154;2023-07-13T14:38:13;5.53;;;1.42;;
70406;SDS011;57821;52.202;0.154;2023-07-13T14:40:42;5.22;;;2.00;;
70406;SDS011;57821;52.202;0.154;2023-07-13T14:43:12;5.43;;;1.80;;
70406;SDS011;57821;52.202;0.154;2023-07-13T14:45:42;4.78;;;1.80;;
70406;SDS011;57821;52.202;0.154;2023-07-13T14:48:22;5.57;;;1.98;;
70406;SDS011;57821;52.202;0.154;2023-07-13T14:50:50;5.03;;;1.98;;
70406;SDS011;57821;52.202;0.154;2023-07-13T14:53:21;7.30;;;2.20;;
70406;SDS011;57821;52.202;0.154;2023-07-13T14:55:48;5.00;;;1.90;;
70406;SDS011;57821;52.202;0.154;2023-07-13T14:58:16;4.88;;;2.10;;
70406;SDS011;57821;52.202;0.154;2023-07-13T15:00:42;6.95;;;2.30;;
70406;SDS011;57821;52.202;0.154;2023-07-13T15:03:19;6.15;;;2.22;;
70406;SDS011;57821;52.202;0.154;2023-07-13T15:05:49;4.83;;;2.20;;
70406;SDS011;57821;52.202;0.154;2023-07-13T15:08:17;7.35;;;2.13;;
70406;SDS011;57821;52.202;0.154;2023-07-13T15:10:44;7.07;;;2.20;;
70406;SDS011;57821;52.202;0.154;2023-07-13T15:13:17;7.32;;;2.00;;
70406;SDS011;57821;52.202;0.154;2023-07-13T15:15:46;5.05;;;2.03;;
70406;SDS011;57821;52.202;0.154;2023-07-13T15:18:15;6.10;;;1.92;;
70406;SDS011;57821;52.202;0.154;2023-07-13T15:20:45;6.25;;;1.55;;
70406;SDS011;57821;52.202;0.154;2023-07-13T15:23:14;6.30;;;1.83;;
70406;SDS011;57821;52.202;0.154;2023-07-13T15:25:42;4.63;;;1.80;;
70406;SDS011;57821;52.202;0.154;2023-07-13T15:28:10;4.38;;;1.73;;
70406;SDS011;57821;52.202;0.154;2023-07-13T15:30:44;5.88;;;2.00;;
70406;SDS011;57821;52.202;0.154;2023-07-13T15:33:23;4.30;;;1.65;;
70406;SDS011;57821;52.202;0.154;2023-07-13T15:35:52;7.15;;;1.65;;
70406;SDS011;57821;52.202;0.154;2023-07-13T15:38:23;8.30;;;3.58;;
70406;SDS011;57821;52.202;0.154;2023-07-13T15:40:52;6.03;;;1.70;;
70406;SDS011;57821;52.202;0.154;2023-07-13T15:43:19;4.78;;;1.83;;
70406;SDS011;57821;52.202;0.154;2023-07-13T15:45:47;6.20;;;1.92;;
70406;SDS011;57821;52.202;0.154;2023-07-13T15:48:16;4.82;;;2.10;;
70406;SDS011;57821;52.202;0.154;2023-07-13T15:50:48;6.07;;;2.17;;